sensor_id;sensor_type;location;lat;lon;timestamp;temperature;humidity
975;DHT22;6115;49.296;10.602;2024-03-25T00:00:31;4.50;75.20
975;DHT22;6115;49.296;10.602;2024-03-25T00:05:32;4.40;75.10
975;DHT22;6115;49.296;10.602;2024-03-25T00:10:32;4.40;75.00
975;DHT22;6115;49.296;10.602;2024-03-25T00:15:33;4.40;75.20
975;DHT22;6115;49.296;10.602;2024-03-25T00:20:34;4.40;74.60
975;DHT22;6115;49.296;10.602;2024-03-25T00:25:35;4.50;74.70
975;DHT22;6115;49.296;10.602;2024-03-25T00:30:35;4.50;74.70
975;DHT22;6115;49.296;10.602;2024-03-25T00:35:36;4.60;74.80
975;DHT22;6115;49.296;10.602;2024-03-25T00:40:36;4.50;74.20
975;DHT22;6115;49.296;10.602;2024-03-25T00:45:37;4.50;74.10
975;DHT22;6115;49.296;10.602;2024-03-25T00:50:37;4.50;74.20
975;DHT22;6115;49.296;10.602;2024-03-25T00:55:38;4.50;74.10
975;DHT22;6115;49.296;10.602;2024-03-25T01:00:38;4.50;73.90
975;DHT22;6115;49.296;10.602;2024-03-25T01:05:39;4.60;73.70
975;DHT22;6115;49.296;10.602;2024-03-25T01:10:39;4.60;73.30
975;DHT22;6115;49.296;10.602;2024-03-25T01:15:40;4.60;73.30
975;DHT22;6115;49.296;10.602;2024-03-25T01:20:40;4.50;73.00
975;DHT22;6115;49.296;10.602;2024-03-25T01:25:41;4.50;73.10
975;DHT22;6115;49.296;10.602;2024-03-25T01:30:42;4.50;73.20
975;DHT22;6115;49.296;10.602;2024-03-25T01:35:42;4.50;73.00
975;DHT22;6115;49.296;10.602;2024-03-25T01:40:43;4.50;73.00
975;DHT22;6115;49.296;10.602;2024-03-25T01:45:45;4.50;73.00
975;DHT22;6115;49.296;10.602;2024-03-25T01:50:46;4.40;72.80
975;DHT22;6115;49.296;10.602;2024-03-25T01:55:48;4.40;72.90
975;DHT22;6115;49.296;10.602;2024-03-25T02:00:50;4.30;72.90
975;DHT22;6115;49.296;10.602;2024-03-25T02:05:55;4.30;73.50
975;DHT22;6115;49.296;10.602;2024-03-25T02:10:58;4.20;73.80
975;DHT22;6115;49.296;10.602;2024-03-25T02:15:58;4.10;74.20
975;DHT22;6115;49.296;10.602;2024-03-25T02:21:00;4.10;74.30
975;DHT22;6115;49.296;10.602;2024-03-25T02:26:00;4.10;74.30
975;DHT22;6115;49.296;10.602;2024-03-25T02:31:01;4.10;74.40
975;DHT22;6115;49.296;10.602;2024-03-25T02:36:01;4.00;74.20
975;DHT22;6115;49.296;10.602;2024-03-25T02:41:03;4.00;74.60
975;DHT22;6115;49.296;10.602;2024-03-25T02:46:03;3.90;74.50
975;DHT22;6115;49.296;10.602;2024-03-25T02:51:04;3.90;74.80
975;DHT22;6115;49.296;10.602;2024-03-25T02:56:05;3.80;74.80
975;DHT22;6115;49.296;10.602;2024-03-25T03:01:05;3.80;74.90
975;DHT22;6115;49.296;10.602;2024-03-25T03:06:06;3.70;74.90
975;DHT22;6115;49.296;10.602;2024-03-25T03:11:06;3.70;75.00
975;DHT22;6115;49.296;10.602;2024-03-25T03:16:07;3.70;75.00
975;DHT22;6115;49.296;10.602;2024-03-25T03:21:07;3.80;74.60
975;DHT22;6115;49.296;10.602;2024-03-25T03:26:08;3.90;74.30
975;DHT22;6115;49.296;10.602;2024-03-25T03:31:08;3.90;74.10
975;DHT22;6115;49.296;10.602;2024-03-25T03:36:09;3.80;74.00
975;DHT22;6115;49.296;10.602;2024-03-25T03:41:09;3.90;74.20
975;DHT22;6115;49.296;10.602;2024-03-25T03:46:10;3.90;74.10
975;DHT22;6115;49.296;10.602;2024-03-25T03:51:11;3.90;73.90
975;DHT22;6115;49.296;10.602;2024-03-25T03:56:12;3.90;73.40
975;DHT22;6115;49.296;10.602;2024-03-25T04:01:16;4.00;73.30
975;DHT22;6115;49.296;10.602;2024-03-25T04:06:17;3.90;72.80
975;DHT22;6115;49.296;10.602;2024-03-25T04:11:17;3.80;73.00
975;DHT22;6115;49.296;10.602;2024-03-25T04:16:18;3.70;73.00
975;DHT22;6115;49.296;10.602;2024-03-25T04:21:18;3.60;72.90
975;DHT22;6115;49.296;10.602;2024-03-25T04:26:19;3.70;72.60
975;DHT22;6115;49.296;10.602;2024-03-25T04:31:19;3.60;72.50
975;DHT22;6115;49.296;10.602;2024-03-25T04:36:20;3.50;72.90
975;DHT22;6115;49.296;10.602;2024-03-25T04:41:20;3.50;73.30
975;DHT22;6115;49.296;10.602;2024-03-25T04:46:21;3.50;73.50
975;DHT22;6115;49.296;10.602;2024-03-25T04:51:22;3.40;73.60
975;DHT22;6115;49.296;10.602;2024-03-25T04:56:22;3.40;73.50
975;DHT22;6115;49.296;10.602;2024-03-25T05:01:23;3.30;73.60
975;DHT22;6115;49.296;10.602;2024-03-25T05:06:23;3.30;73.60
975;DHT22;6115;49.296;10.602;2024-03-25T05:11:24;3.20;73.40
975;DHT22;6115;49.296;10.602;2024-03-25T05:16:24;3.20;73.40
975;DHT22;6115;49.296;10.602;2024-03-25T05:21:25;3.20;73.40
975;DHT22;6115;49.296;10.602;2024-03-25T05:26:25;3.10;73.40
975;DHT22;6115;49.296;10.602;2024-03-25T05:31:26;3.10;73.40
975;DHT22;6115;49.296;10.602;2024-03-25T05:36:26;3.20;73.40
975;DHT22;6115;49.296;10.602;2024-03-25T05:41:28;3.20;73.20
975;DHT22;6115;49.296;10.602;2024-03-25T05:46:29;3.10;73.40
975;DHT22;6115;49.296;10.602;2024-03-25T05:51:30;3.10;73.40
975;DHT22;6115;49.296;10.602;2024-03-25T05:56:30;3.10;73.40
975;DHT22;6115;49.296;10.602;2024-03-25T06:01:31;3.20;73.10
975;DHT22;6115;49.296;10.602;2024-03-25T06:06:32;3.20;73.20
975;DHT22;6115;49.296;10.602;2024-03-25T06:11:33;3.20;73.40
975;DHT22;6115;49.296;10.602;2024-03-25T06:16:34;3.20;73.10
975;DHT22;6115;49.296;10.602;2024-03-25T06:21:34;3.30;73.10
975;DHT22;6115;49.296;10.602;2024-03-25T06:26:34;3.30;72.50
975;DHT22;6115;49.296;10.602;2024-03-25T06:31:35;3.40;72.10
975;DHT22;6115;49.296;10.602;2024-03-25T06:36:54;3.50;71.50
975;DHT22;6115;49.296;10.602;2024-03-25T06:41:55;3.70;70.70
975;DHT22;6115;49.296;10.602;2024-03-25T06:46:56;3.80;70.10
975;DHT22;6115;49.296;10.602;2024-03-25T06:51:56;3.90;69.30
975;DHT22;6115;49.296;10.602;2024-03-25T06:56:57;4.00;68.40
975;DHT22;6115;49.296;10.602;2024-03-25T07:01:57;4.20;68.10
975;DHT22;6115;49.296;10.602;2024-03-25T07:06:58;4.40;67.90
975;DHT22;6115;49.296;10.602;2024-03-25T07:11:58;4.50;68.20
975;DHT22;6115;49.296;10.602;2024-03-25T07:16:59;4.50;67.60
975;DHT22;6115;49.296;10.602;2024-03-25T07:21:59;4.60;67.20
975;DHT22;6115;49.296;10.602;2024-03-25T07:27:00;4.80;66.90
975;DHT22;6115;49.296;10.602;2024-03-25T07:32:00;5.00;66.90
975;DHT22;6115;49.296;10.602;2024-03-25T07:37:01;5.10;66.20
975;DHT22;6115;49.296;10.602;2024-03-25T07:42:01;5.10;63.10
975;DHT22;6115;49.296;10.602;2024-03-25T07:47:02;5.20;63.00
975;DHT22;6115;49.296;10.602;2024-03-25T07:52:03;5.50;62.30
975;DHT22;6115;49.296;10.602;2024-03-25T07:57:04;5.50;58.50
975;DHT22;6115;49.296;10.602;2024-03-25T08:02:05;5.50;58.60
975;DHT22;6115;49.296;10.602;2024-03-25T08:07:06;5.60;57.20
975;DHT22;6115;49.296;10.602;2024-03-25T08:12:06;5.80;57.30
975;DHT22;6115;49.296;10.602;2024-03-25T08:17:07;5.80;54.80
975;DHT22;6115;49.296;10.602;2024-03-25T08:22:07;5.90;54.60
975;DHT22;6115;49.296;10.602;2024-03-25T08:27:09;6.00;54.40
975;DHT22;6115;49.296;10.602;2024-03-25T08:32:09;6.20;53.80
975;DHT22;6115;49.296;10.602;2024-03-25T08:37:10;6.20;52.80
975;DHT22;6115;49.296;10.602;2024-03-25T08:42:10;6.40;52.60
975;DHT22;6115;49.296;10.602;2024-03-25T08:47:11;6.50;52.80
975;DHT22;6115;49.296;10.602;2024-03-25T08:52:11;6.60;53.00
975;DHT22;6115;49.296;10.602;2024-03-25T08:57:12;6.60;53.10
975;DHT22;6115;49.296;10.602;2024-03-25T09:02:13;7.00;52.50
975;DHT22;6115;49.296;10.602;2024-03-25T09:07:14;7.30;51.20
975;DHT22;6115;49.296;10.602;2024-03-25T09:12:15;7.20;50.90
975;DHT22;6115;49.296;10.602;2024-03-25T09:17:15;7.20;51.10
975;DHT22;6115;49.296;10.602;2024-03-25T09:22:17;7.40;51.00
975;DHT22;6115;49.296;10.602;2024-03-25T09:27:18;7.90;52.00
975;DHT22;6115;49.296;10.602;2024-03-25T09:32:18;8.70;49.50
975;DHT22;6115;49.296;10.602;2024-03-25T09:37:21;9.40;47.20
975;DHT22;6115;49.296;10.602;2024-03-25T09:42:46;9.80;45.00
975;DHT22;6115;49.296;10.602;2024-03-25T09:47:48;10.90;42.30
975;DHT22;6115;49.296;10.602;2024-03-25T09:52:49;10.10;41.00
975;DHT22;6115;49.296;10.602;2024-03-25T09:57:50;10.30;41.10
975;DHT22;6115;49.296;10.602;2024-03-25T10:02:52;11.30;40.00
975;DHT22;6115;49.296;10.602;2024-03-25T10:07:52;11.50;39.00
975;DHT22;6115;49.296;10.602;2024-03-25T10:12:55;11.50;37.60
975;DHT22;6115;49.296;10.602;2024-03-25T10:17:55;12.30;36.40
975;DHT22;6115;49.296;10.602;2024-03-25T10:22:56;11.90;37.80
975;DHT22;6115;49.296;10.602;2024-03-25T10:27:59;12.00;36.40
975;DHT22;6115;49.296;10.602;2024-03-25T10:33:04;11.60;37.80
975;DHT22;6115;49.296;10.602;2024-03-25T10:38:06;11.30;37.00
975;DHT22;6115;49.296;10.602;2024-03-25T10:43:09;11.50;37.00
975;DHT22;6115;49.296;10.602;2024-03-25T10:48:31;12.30;36.60
975;DHT22;6115;49.296;10.602;2024-03-25T10:53:35;12.80;36.40
975;DHT22;6115;49.296;10.602;2024-03-25T10:58:37;13.10;33.30
975;DHT22;6115;49.296;10.602;2024-03-25T11:03:38;13.60;35.00
975;DHT22;6115;49.296;10.602;2024-03-25T11:08:39;12.80;34.50
975;DHT22;6115;49.296;10.602;2024-03-25T11:13:42;12.60;32.70
975;DHT22;6115;49.296;10.602;2024-03-25T11:18:50;12.90;32.60
975;DHT22;6115;49.296;10.602;2024-03-25T11:23:51;12.20;31.90
975;DHT22;6115;49.296;10.602;2024-03-25T11:28:52;11.90;31.80
975;DHT22;6115;49.296;10.602;2024-03-25T11:33:54;11.00;33.00
975;DHT22;6115;49.296;10.602;2024-03-25T11:39:02;10.80;33.40
975;DHT22;6115;49.296;10.602;2024-03-25T11:44:05;11.00;33.80
975;DHT22;6115;49.296;10.602;2024-03-25T11:49:06;11.20;33.10
975;DHT22;6115;49.296;10.602;2024-03-25T11:54:10;10.90;31.60
975;DHT22;6115;49.296;10.602;2024-03-25T11:59:11;11.00;33.60
975;DHT22;6115;49.296;10.602;2024-03-25T12:04:18;11.80;33.60
975;DHT22;6115;49.296;10.602;2024-03-25T12:09:19;12.00;33.80
975;DHT22;6115;49.296;10.602;2024-03-25T12:14:38;11.90;32.90
975;DHT22;6115;49.296;10.602;2024-03-25T12:19:38;12.80;31.50
975;DHT22;6115;49.296;10.602;2024-03-25T12:24:39;13.00;31.80
975;DHT22;6115;49.296;10.602;2024-03-25T12:29:39;13.10;29.60
975;DHT22;6115;49.296;10.602;2024-03-25T12:34:42;13.60;30.40
975;DHT22;6115;49.296;10.602;2024-03-25T12:39:49;14.20;29.40
975;DHT22;6115;49.296;10.602;2024-03-25T12:44:50;14.80;28.20
975;DHT22;6115;49.296;10.602;2024-03-25T12:49:50;14.90;27.50
975;DHT22;6115;49.296;10.602;2024-03-25T12:54:51;14.40;29.00
975;DHT22;6115;49.296;10.602;2024-03-25T12:59:51;13.70;28.00
975;DHT22;6115;49.296;10.602;2024-03-25T13:04:52;13.60;27.00
975;DHT22;6115;49.296;10.602;2024-03-25T13:09:52;13.90;28.00
975;DHT22;6115;49.296;10.602;2024-03-25T13:14:53;13.80;29.10
975;DHT22;6115;49.296;10.602;2024-03-25T13:19:53;13.60;29.20
975;DHT22;6115;49.296;10.602;2024-03-25T13:24:54;13.90;26.80
975;DHT22;6115;49.296;10.602;2024-03-25T13:29:54;14.40;27.20
975;DHT22;6115;49.296;10.602;2024-03-25T13:34:55;15.20;27.70
975;DHT22;6115;49.296;10.602;2024-03-25T13:39:55;14.80;26.50
975;DHT22;6115;49.296;10.602;2024-03-25T13:44:56;15.00;27.20
975;DHT22;6115;49.296;10.602;2024-03-25T13:50:04;14.20;26.60
975;DHT22;6115;49.296;10.602;2024-03-25T13:55:05;14.50;25.90
975;DHT22;6115;49.296;10.602;2024-03-25T14:00:06;14.60;24.50
975;DHT22;6115;49.296;10.602;2024-03-25T14:05:10;15.10;26.00
975;DHT22;6115;49.296;10.602;2024-03-25T14:10:10;15.60;25.50
975;DHT22;6115;49.296;10.602;2024-03-25T14:15:11;15.10;25.40
975;DHT22;6115;49.296;10.602;2024-03-25T14:20:12;15.00;25.80
975;DHT22;6115;49.296;10.602;2024-03-25T14:25:12;15.70;25.00
975;DHT22;6115;49.296;10.602;2024-03-25T14:30:13;16.00;24.40
975;DHT22;6115;49.296;10.602;2024-03-25T14:35:15;16.30;23.70
975;DHT22;6115;49.296;10.602;2024-03-25T14:40:15;15.70;24.70
975;DHT22;6115;49.296;10.602;2024-03-25T14:45:19;15.40;24.60
975;DHT22;6115;49.296;10.602;2024-03-25T14:50:20;16.10;24.90
975;DHT22;6115;49.296;10.602;2024-03-25T14:55:20;16.30;24.20
975;DHT22;6115;49.296;10.602;2024-03-25T15:00:21;16.60;24.90
975;DHT22;6115;49.296;10.602;2024-03-25T15:05:21;16.30;23.50
975;DHT22;6115;49.296;10.602;2024-03-25T15:10:22;16.00;24.50
975;DHT22;6115;49.296;10.602;2024-03-25T15:15:22;16.20;24.60
975;DHT22;6115;49.296;10.602;2024-03-25T15:20:23;16.30;24.70
975;DHT22;6115;49.296;10.602;2024-03-25T15:25:23;16.40;24.50
975;DHT22;6115;49.296;10.602;2024-03-25T15:30:24;16.30;24.40
975;DHT22;6115;49.296;10.602;2024-03-25T15:35:25;16.50;24.60
975;DHT22;6115;49.296;10.602;2024-03-25T15:40:26;16.00;24.20
975;DHT22;6115;49.296;10.602;2024-03-25T15:45:27;15.80;24.10
975;DHT22;6115;49.296;10.602;2024-03-25T15:50:29;16.30;23.70
975;DHT22;6115;49.296;10.602;2024-03-25T15:55:30;16.30;23.30
975;DHT22;6115;49.296;10.602;2024-03-25T16:00:31;16.20;23.80
975;DHT22;6115;49.296;10.602;2024-03-25T16:05:32;16.20;23.60
975;DHT22;6115;49.296;10.602;2024-03-25T16:10:34;16.00;24.60
975;DHT22;6115;49.296;10.602;2024-03-25T16:15:35;15.80;24.70
975;DHT22;6115;49.296;10.602;2024-03-25T16:20:36;15.60;24.90
975;DHT22;6115;49.296;10.602;2024-03-25T16:25:38;15.80;24.20
975;DHT22;6115;49.296;10.602;2024-03-25T16:30:42;15.60;24.70
975;DHT22;6115;49.296;10.602;2024-03-25T16:35:42;15.40;24.70
975;DHT22;6115;49.296;10.602;2024-03-25T16:40:43;15.30;24.70
975;DHT22;6115;49.296;10.602;2024-03-25T16:45:43;14.60;24.90
975;DHT22;6115;49.296;10.602;2024-03-25T16:50:45;14.50;25.50
975;DHT22;6115;49.296;10.602;2024-03-25T16:55:49;14.20;25.80
975;DHT22;6115;49.296;10.602;2024-03-25T17:00:50;13.50;26.60
975;DHT22;6115;49.296;10.602;2024-03-25T17:05:52;13.10;26.80
975;DHT22;6115;49.296;10.602;2024-03-25T17:10:52;12.50;27.40
975;DHT22;6115;49.296;10.602;2024-03-25T17:15:53;12.10;28.10
975;DHT22;6115;49.296;10.602;2024-03-25T17:20:58;11.80;28.80
975;DHT22;6115;49.296;10.602;2024-03-25T17:26:03;11.50;29.10
975;DHT22;6115;49.296;10.602;2024-03-25T17:31:04;11.20;30.20
975;DHT22;6115;49.296;10.602;2024-03-25T17:36:05;11.00;30.20
975;DHT22;6115;49.296;10.602;2024-03-25T17:41:06;10.70;31.10
975;DHT22;6115;49.296;10.602;2024-03-25T17:46:06;10.50;31.60
975;DHT22;6115;49.296;10.602;2024-03-25T17:51:08;10.30;32.30
975;DHT22;6115;49.296;10.602;2024-03-25T17:56:08;10.10;32.20
975;DHT22;6115;49.296;10.602;2024-03-25T18:01:09;9.90;33.30
975;DHT22;6115;49.296;10.602;2024-03-25T18:06:10;9.60;34.20
975;DHT22;6115;49.296;10.602;2024-03-25T18:11:10;9.20;35.20
975;DHT22;6115;49.296;10.602;2024-03-25T18:16:11;9.00;35.80
975;DHT22;6115;49.296;10.602;2024-03-25T18:21:14;8.70;36.50
975;DHT22;6115;49.296;10.602;2024-03-25T18:26:14;8.40;36.90
975;DHT22;6115;49.296;10.602;2024-03-25T18:31:16;8.10;37.80
975;DHT22;6115;49.296;10.602;2024-03-25T18:36:17;7.90;39.40
975;DHT22;6115;49.296;10.602;2024-03-25T18:41:17;7.70;40.60
975;DHT22;6115;49.296;10.602;2024-03-25T18:46:18;7.40;40.90
975;DHT22;6115;49.296;10.602;2024-03-25T18:51:18;7.50;41.00
975;DHT22;6115;49.296;10.602;2024-03-25T18:56:19;7.30;41.90
975;DHT22;6115;49.296;10.602;2024-03-25T19:01:19;6.90;43.10
975;DHT22;6115;49.296;10.602;2024-03-25T19:06:20;6.70;43.90
975;DHT22;6115;49.296;10.602;2024-03-25T19:11:20;6.50;44.60
975;DHT22;6115;49.296;10.602;2024-03-25T19:16:21;6.40;45.20
975;DHT22;6115;49.296;10.602;2024-03-25T19:21:21;6.20;45.70
975;DHT22;6115;49.296;10.602;2024-03-25T19:26:22;6.20;45.80
975;DHT22;6115;49.296;10.602;2024-03-25T19:31:22;6.10;46.30
975;DHT22;6115;49.296;10.602;2024-03-25T19:36:23;5.60;47.00
975;DHT22;6115;49.296;10.602;2024-03-25T19:41:23;5.60;47.40
975;DHT22;6115;49.296;10.602;2024-03-25T19:46:24;5.50;47.80
975;DHT22;6115;49.296;10.602;2024-03-25T19:51:24;5.30;48.80
975;DHT22;6115;49.296;10.602;2024-03-25T19:56:25;4.90;49.60
975;DHT22;6115;49.296;10.602;2024-03-25T20:01:25;4.80;50.70
975;DHT22;6115;49.296;10.602;2024-03-25T20:06:26;4.70;50.70
975;DHT22;6115;49.296;10.602;2024-03-25T20:11:27;4.70;50.90
975;DHT22;6115;49.296;10.602;2024-03-25T20:16:27;4.60;51.10
975;DHT22;6115;49.296;10.602;2024-03-25T20:21:28;4.60;51.00
975;DHT22;6115;49.296;10.602;2024-03-25T20:26:28;4.50;51.50
975;DHT22;6115;49.296;10.602;2024-03-25T20:31:29;4.50;51.40
975;DHT22;6115;49.296;10.602;2024-03-25T20:36:29;4.40;51.60
975;DHT22;6115;49.296;10.602;2024-03-25T20:41:30;4.20;52.30
975;DHT22;6115;49.296;10.602;2024-03-25T20:46:30;4.00;53.00
975;DHT22;6115;49.296;10.602;2024-03-25T20:51:31;3.80;53.50
975;DHT22;6115;49.296;10.602;2024-03-25T20:56:32;3.80;53.40
975;DHT22;6115;49.296;10.602;2024-03-25T21:01:32;3.80;53.60
975;DHT22;6115;49.296;10.602;2024-03-25T21:06:33;3.70;54.00
975;DHT22;6115;49.296;10.602;2024-03-25T21:11:33;3.70;54.20
975;DHT22;6115;49.296;10.602;2024-03-25T21:16:34;3.60;54.50
975;DHT22;6115;49.296;10.602;2024-03-25T21:21:35;3.40;54.90
975;DHT22;6115;49.296;10.602;2024-03-25T21:26:35;3.30;55.10
975;DHT22;6115;49.296;10.602;2024-03-25T21:31:36;3.20;55.80
975;DHT22;6115;49.296;10.602;2024-03-25T21:36:36;3.00;56.50
975;DHT22;6115;49.296;10.602;2024-03-25T21:41:37;2.90;57.00
975;DHT22;6115;49.296;10.602;2024-03-25T21:46:42;3.00;57.40
975;DHT22;6115;49.296;10.602;2024-03-25T21:51:42;3.00;57.30
975;DHT22;6115;49.296;10.602;2024-03-25T21:56:44;3.20;57.10
975;DHT22;6115;49.296;10.602;2024-03-25T22:01:44;3.40;56.70
975;DHT22;6115;49.296;10.602;2024-03-25T22:06:45;3.50;56.30
975;DHT22;6115;49.296;10.602;2024-03-25T22:11:45;3.50;56.40
975;DHT22;6115;49.296;10.602;2024-03-25T22:16:46;3.60;55.50
975;DHT22;6115;49.296;10.602;2024-03-25T22:21:47;3.60;55.30
975;DHT22;6115;49.296;10.602;2024-03-25T22:26:48;3.60;55.10
975;DHT22;6115;49.296;10.602;2024-03-25T22:31:48;3.70;55.20
975;DHT22;6115;49.296;10.602;2024-03-25T22:36:49;3.70;55.20
975;DHT22;6115;49.296;10.602;2024-03-25T22:41:49;3.80;55.30
975;DHT22;6115;49.296;10.602;2024-03-25T22:46:50;3.80;55.20
975;DHT22;6115;49.296;10.602;2024-03-25T22:51:50;3.80;55.20
975;DHT22;6115;49.296;10.602;2024-03-25T22:56:51;3.80;55.10
975;DHT22;6115;49.296;10.602;2024-03-25T23:01:51;3.80;54.90
975;DHT22;6115;49.296;10.602;2024-03-25T23:06:52;3.70;55.20
975;DHT22;6115;49.296;10.602;2024-03-25T23:11:53;3.70;55.20
975;DHT22;6115;49.296;10.602;2024-03-25T23:16:53;3.60;55.10
975;DHT22;6115;49.296;10.602;2024-03-25T23:21:54;3.60;55.10
975;DHT22;6115;49.296;10.602;2024-03-25T23:26:56;3.50;55.00
975;DHT22;6115;49.296;10.602;2024-03-25T23:31:56;3.30;55.40
975;DHT22;6115;49.296;10.602;2024-03-25T23:36:57;3.20;55.80
975;DHT22;6115;49.296;10.602;2024-03-25T23:41:57;3.10;56.20
975;DHT22;6115;49.296;10.602;2024-03-25T23:46:58;3.00;56.40
975;DHT22;6115;49.296;10.602;2024-03-25T23:51:58;2.90;56.70
975;DHT22;6115;49.296;10.602;2024-03-25T23:57:05;2.90;57.10
